sensor_id;sensor_type;location;lat;lon;timestamp;P1;durP1;ratioP1;P2;durP2;ratioP2
19207;SDS011;9737;59.466;18.036;2023-06-04T00:01:31;4.20;;;2.85;;
19207;SDS011;9737;59.466;18.036;2023-06-04T00:03:59;5.38;;;3.00;;
19207;SDS011;9737;59.466;18.036;2023-06-04T00:06:29;6.43;;;3.40;;
19207;SDS011;9737;59.466;18.036;2023-06-04T00:08:56;5.50;;;3.45;;
19207;SDS011;9737;59.466;18.036;2023-06-04T00:11:25;4.15;;;3.00;;
19207;SDS011;9737;59.466;18.036;2023-06-04T00:13:53;4.47;;;2.88;;
19207;SDS011;9737;59.466;18.036;2023-06-04T00:16:20;6.88;;;2.90;;
19207;SDS011;9737;59.466;18.036;2023-06-04T00:18:48;6.88;;;3.00;;
19207;SDS011;9737;59.466;18.036;2023-06-04T00:21:18;7.20;;;3.00;;
19207;SDS011;9737;59.466;18.036;2023-06-04T00:23:47;4.65;;;3.30;;
19207;SDS011;9737;59.466;18.036;2023-06-04T00:26:15;5.05;;;3.33;;
19207;SDS011;9737;59.466;18.036;2023-06-04T00:28:43;6.50;;;3.33;;
19207;SDS011;9737;59.466;18.036;2023-06-04T00:31:11;4.30;;;3.45;;
19207;SDS011;9737;59.466;18.036;2023-06-04T00:33:39;7.25;;;3.75;;
19207;SDS011;9737;59.466;18.036;2023-06-04T00:36:07;7.30;;;3.60;;
19207;SDS011;9737;59.466;18.036;2023-06-04T00:38:35;6.13;;;3.13;;
19207;SDS011;9737;59.466;18.036;2023-06-04T00:41:05;5.70;;;3.60;;
19207;SDS011;9737;59.466;18.036;2023-06-04T00:43:33;4.88;;;3.55;;
19207;SDS011;9737;59.466;18.036;2023-06-04T00:46:02;6.43;;;3.17;;
19207;SDS011;9737;59.466;18.036;2023-06-04T00:48:30;6.15;;;3.47;;
19207;SDS011;9737;59.466;18.036;2023-06-04T00:50:58;4.53;;;3.40;;
19207;SDS011;9737;59.466;18.036;2023-06-04T00:53:26;8.05;;;3.35;;
19207;SDS011;9737;59.466;18.036;2023-06-04T00:55:54;6.38;;;3.35;;
19207;SDS011;9737;59.466;18.036;2023-06-04T00:58:24;4.72;;;3.60;;
19207;SDS011;9737;59.466;18.036;2023-06-04T01:00:52;5.47;;;3.42;;
19207;SDS011;9737;59.466;18.036;2023-06-04T01:03:25;6.25;;;3.22;;
19207;SDS011;9737;59.466;18.036;2023-06-04T01:06:00;4.82;;;3.10;;
19207;SDS011;9737;59.466;18.036;2023-06-04T01:08:35;4.05;;;2.90;;
19207;SDS011;9737;59.466;18.036;2023-06-04T01:11:04;5.28;;;3.45;;
19207;SDS011;9737;59.466;18.036;2023-06-04T01:13:33;3.35;;;2.78;;
19207;SDS011;9737;59.466;18.036;2023-06-04T01:16:01;3.45;;;2.72;;
19207;SDS011;9737;59.466;18.036;2023-06-04T01:18:30;6.07;;;3.17;;
19207;SDS011;9737;59.466;18.036;2023-06-04T01:21:03;4.03;;;2.90;;
19207;SDS011;9737;59.466;18.036;2023-06-04T01:23:37;3.40;;;2.53;;
19207;SDS011;9737;59.466;18.036;2023-06-04T01:26:13;3.75;;;2.60;;
19207;SDS011;9737;59.466;18.036;2023-06-04T01:28:42;5.25;;;2.90;;
19207;SDS011;9737;59.466;18.036;2023-06-04T01:31:12;4.82;;;2.80;;
19207;SDS011;9737;59.466;18.036;2023-06-04T01:33:41;5.35;;;2.90;;
19207;SDS011;9737;59.466;18.036;2023-06-04T01:36:09;3.95;;;2.72;;
19207;SDS011;9737;59.466;18.036;2023-06-04T01:38:38;5.15;;;3.25;;
19207;SDS011;9737;59.466;18.036;2023-06-04T01:41:06;5.32;;;2.90;;
19207;SDS011;9737;59.466;18.036;2023-06-04T01:43:34;5.13;;;2.50;;
19207;SDS011;9737;59.466;18.036;2023-06-04T01:46:03;4.03;;;2.88;;
19207;SDS011;9737;59.466;18.036;2023-06-04T01:48:31;4.57;;;3.15;;
19207;SDS011;9737;59.466;18.036;2023-06-04T01:50:59;5.63;;;2.92;;
19207;SDS011;9737;59.466;18.036;2023-06-04T01:53:28;4.45;;;2.95;;
19207;SDS011;9737;59.466;18.036;2023-06-04T01:55:57;8.73;;;3.22;;
19207;SDS011;9737;59.466;18.036;2023-06-04T01:58:25;5.55;;;3.50;;
19207;SDS011;9737;59.466;18.036;2023-06-04T02:00:55;2.92;;;2.45;;
19207;SDS011;9737;59.466;18.036;2023-06-04T02:03:28;2.58;;;2.25;;
19207;SDS011;9737;59.466;18.036;2023-06-04T02:06:03;4.22;;;1.98;;
19207;SDS011;9737;59.466;18.036;2023-06-04T02:08:34;4.82;;;1.95;;
19207;SDS011;9737;59.466;18.036;2023-06-04T02:11:02;3.65;;;1.80;;
19207;SDS011;9737;59.466;18.036;2023-06-04T02:13:30;2.75;;;1.80;;
19207;SDS011;9737;59.466;18.036;2023-06-04T02:15:58;2.00;;;1.70;;
19207;SDS011;9737;59.466;18.036;2023-06-04T02:18:27;2.22;;;1.65;;
19207;SDS011;9737;59.466;18.036;2023-06-04T02:20:56;2.03;;;1.83;;
19207;SDS011;9737;59.466;18.036;2023-06-04T02:23:24;2.03;;;1.73;;
19207;SDS011;9737;59.466;18.036;2023-06-04T02:25:52;2.10;;;1.55;;
19207;SDS011;9737;59.466;18.036;2023-06-04T02:28:19;3.75;;;1.80;;
19207;SDS011;9737;59.466;18.036;2023-06-04T02:30:48;2.42;;;1.60;;
19207;SDS011;9737;59.466;18.036;2023-06-04T02:33:16;1.80;;;1.40;;
19207;SDS011;9737;59.466;18.036;2023-06-04T02:35:48;2.50;;;1.50;;
19207;SDS011;9737;59.466;18.036;2023-06-04T02:38:16;2.22;;;1.40;;
19207;SDS011;9737;59.466;18.036;2023-06-04T02:40:44;1.67;;;1.45;;
19207;SDS011;9737;59.466;18.036;2023-06-04T02:43:12;5.00;;;1.40;;
19207;SDS011;9737;59.466;18.036;2023-06-04T02:45:40;1.60;;;1.50;;
19207;SDS011;9737;59.466;18.036;2023-06-04T02:48:08;5.65;;;1.60;;
19207;SDS011;9737;59.466;18.036;2023-06-04T02:50:39;2.35;;;1.38;;
19207;SDS011;9737;59.466;18.036;2023-06-04T02:53:10;2.50;;;1.60;;
19207;SDS011;9737;59.466;18.036;2023-06-04T02:55:38;1.55;;;1.45;;
19207;SDS011;9737;59.466;18.036;2023-06-04T02:58:08;1.70;;;1.30;;
19207;SDS011;9737;59.466;18.036;2023-06-04T03:00:36;2.08;;;1.40;;
19207;SDS011;9737;59.466;18.036;2023-06-04T03:03:04;3.53;;;1.60;;
19207;SDS011;9737;59.466;18.036;2023-06-04T03:05:32;1.48;;;1.38;;
19207;SDS011;9737;59.466;18.036;2023-06-04T03:08:01;2.40;;;1.63;;
19207;SDS011;9737;59.466;18.036;2023-06-04T03:10:31;2.28;;;1.60;;
19207;SDS011;9737;59.466;18.036;2023-06-04T03:12:59;1.48;;;1.38;;
19207;SDS011;9737;59.466;18.036;2023-06-04T03:15:27;2.67;;;1.70;;
19207;SDS011;9737;59.466;18.036;2023-06-04T03:17:55;1.45;;;1.33;;
19207;SDS011;9737;59.466;18.036;2023-06-04T03:20:23;3.92;;;1.60;;
19207;SDS011;9737;59.466;18.036;2023-06-04T03:22:51;2.38;;;1.58;;
19207;SDS011;9737;59.466;18.036;2023-06-04T03:25:19;3.60;;;1.60;;
19207;SDS011;9737;59.466;18.036;2023-06-04T03:27:49;1.50;;;1.40;;
19207;SDS011;9737;59.466;18.036;2023-06-04T03:30:17;1.52;;;1.30;;
19207;SDS011;9737;59.466;18.036;2023-06-04T03:32:45;1.50;;;1.40;;
19207;SDS011;9737;59.466;18.036;2023-06-04T03:35:14;1.60;;;1.50;;
19207;SDS011;9737;59.466;18.036;2023-06-04T03:37:42;1.48;;;1.38;;
19207;SDS011;9737;59.466;18.036;2023-06-04T03:40:10;1.33;;;1.23;;
19207;SDS011;9737;59.466;18.036;2023-06-04T03:42:40;2.08;;;1.40;;
19207;SDS011;9737;59.466;18.036;2023-06-04T03:45:09;3.88;;;1.30;;
19207;SDS011;9737;59.466;18.036;2023-06-04T03:47:37;1.77;;;1.33;;
19207;SDS011;9737;59.466;18.036;2023-06-04T03:50:07;3.78;;;1.20;;
19207;SDS011;9737;59.466;18.036;2023-06-04T03:52:35;1.50;;;1.40;;
19207;SDS011;9737;59.466;18.036;2023-06-04T03:55:03;1.63;;;1.40;;
19207;SDS011;9737;59.466;18.036;2023-06-04T03:57:32;1.58;;;1.45;;
19207;SDS011;9737;59.466;18.036;2023-06-04T04:00:00;2.40;;;1.30;;
19207;SDS011;9737;59.466;18.036;2023-06-04T04:02:31;1.27;;;1.17;;
19207;SDS011;9737;59.466;18.036;2023-06-04T04:05:23;1.70;;;1.30;;
19207;SDS011;9737;59.466;18.036;2023-06-04T04:07:51;1.73;;;1.30;;
19207;SDS011;9737;59.466;18.036;2023-06-04T04:10:19;1.67;;;1.33;;
19207;SDS011;9737;59.466;18.036;2023-06-04T04:12:47;1.30;;;1.20;;
19207;SDS011;9737;59.466;18.036;2023-06-04T04:15:17;1.60;;;1.48;;
19207;SDS011;9737;59.466;18.036;2023-06-04T04:17:46;1.30;;;1.20;;
19207;SDS011;9737;59.466;18.036;2023-06-04T04:20:14;2.58;;;1.30;;
19207;SDS011;9737;59.466;18.036;2023-06-04T04:22:42;3.95;;;1.33;;
19207;SDS011;9737;59.466;18.036;2023-06-04T04:25:10;1.50;;;1.15;;
19207;SDS011;9737;59.466;18.036;2023-06-04T04:27:38;1.42;;;1.33;;
19207;SDS011;9737;59.466;18.036;2023-06-04T04:30:07;1.48;;;1.20;;
19207;SDS011;9737;59.466;18.036;2023-06-04T04:32:35;3.20;;;1.38;;
19207;SDS011;9737;59.466;18.036;2023-06-04T04:35:07;2.03;;;1.40;;
19207;SDS011;9737;59.466;18.036;2023-06-04T04:37:35;2.65;;;1.10;;
19207;SDS011;9737;59.466;18.036;2023-06-04T04:40:06;1.80;;;1.23;;
19207;SDS011;9737;59.466;18.036;2023-06-04T04:42:36;1.42;;;1.10;;
19207;SDS011;9737;59.466;18.036;2023-06-04T04:45:05;1.20;;;1.10;;
19207;SDS011;9737;59.466;18.036;2023-06-04T04:47:34;2.25;;;1.17;;
19207;SDS011;9737;59.466;18.036;2023-06-04T04:50:02;2.80;;;1.20;;
19207;SDS011;9737;59.466;18.036;2023-06-04T04:52:33;1.33;;;1.17;;
19207;SDS011;9737;59.466;18.036;2023-06-04T04:55:01;1.13;;;1.05;;
19207;SDS011;9737;59.466;18.036;2023-06-04T04:57:29;1.48;;;1.02;;
19207;SDS011;9737;59.466;18.036;2023-06-04T04:59:57;1.05;;;0.95;;
19207;SDS011;9737;59.466;18.036;2023-06-04T05:02:25;2.47;;;1.20;;
19207;SDS011;9737;59.466;18.036;2023-06-04T05:04:53;2.75;;;1.20;;
19207;SDS011;9737;59.466;18.036;2023-06-04T05:07:21;1.30;;;1.10;;
19207;SDS011;9737;59.466;18.036;2023-06-04T05:09:51;1.20;;;1.10;;
19207;SDS011;9737;59.466;18.036;2023-06-04T05:12:19;4.88;;;1.02;;
19207;SDS011;9737;59.466;18.036;2023-06-04T05:14:47;1.27;;;1.15;;
19207;SDS011;9737;59.466;18.036;2023-06-04T05:17:15;1.25;;;0.90;;
19207;SDS011;9737;59.466;18.036;2023-06-04T05:19:48;2.45;;;1.02;;
19207;SDS011;9737;59.466;18.036;2023-06-04T05:22:15;1.15;;;1.05;;
19207;SDS011;9737;59.466;18.036;2023-06-04T05:24:45;1.10;;;1.00;;
19207;SDS011;9737;59.466;18.036;2023-06-04T05:27:14;4.97;;;1.00;;
19207;SDS011;9737;59.466;18.036;2023-06-04T05:29:42;1.40;;;0.90;;
19207;SDS011;9737;59.466;18.036;2023-06-04T05:32:09;2.47;;;1.00;;
19207;SDS011;9737;59.466;18.036;2023-06-04T05:34:38;0.95;;;0.90;;
19207;SDS011;9737;59.466;18.036;2023-06-04T05:37:06;0.93;;;0.90;;
19207;SDS011;9737;59.466;18.036;2023-06-04T05:39:37;0.73;;;0.70;;
19207;SDS011;9737;59.466;18.036;2023-06-04T05:42:06;5.85;;;1.42;;
19207;SDS011;9737;59.466;18.036;2023-06-04T05:44:35;0.90;;;0.90;;
19207;SDS011;9737;59.466;18.036;2023-06-04T05:47:03;0.90;;;0.90;;
19207;SDS011;9737;59.466;18.036;2023-06-04T05:49:33;3.72;;;1.00;;
19207;SDS011;9737;59.466;18.036;2023-06-04T05:52:02;0.93;;;0.80;;
19207;SDS011;9737;59.466;18.036;2023-06-04T05:54:30;2.70;;;0.80;;
19207;SDS011;9737;59.466;18.036;2023-06-04T05:56:59;0.90;;;0.80;;
19207;SDS011;9737;59.466;18.036;2023-06-04T05:59:27;1.10;;;0.80;;
19207;SDS011;9737;59.466;18.036;2023-06-04T06:01:56;1.08;;;0.98;;
19207;SDS011;9737;59.466;18.036;2023-06-04T06:04:25;0.95;;;0.75;;
19207;SDS011;9737;59.466;18.036;2023-06-04T06:06:53;0.80;;;0.80;;
19207;SDS011;9737;59.466;18.036;2023-06-04T06:09:21;0.90;;;0.80;;
19207;SDS011;9737;59.466;18.036;2023-06-04T06:11:49;0.70;;;0.70;;
19207;SDS011;9737;59.466;18.036;2023-06-04T06:14:17;0.80;;;0.80;;
19207;SDS011;9737;59.466;18.036;2023-06-04T06:16:45;0.77;;;0.73;;
19207;SDS011;9737;59.466;18.036;2023-06-04T06:19:15;0.70;;;0.70;;
19207;SDS011;9737;59.466;18.036;2023-06-04T06:21:44;1.55;;;0.80;;
19207;SDS011;9737;59.466;18.036;2023-06-04T06:24:12;1.17;;;0.80;;
19207;SDS011;9737;59.466;18.036;2023-06-04T06:26:40;0.80;;;0.80;;
19207;SDS011;9737;59.466;18.036;2023-06-04T06:29:09;1.17;;;0.80;;
19207;SDS011;9737;59.466;18.036;2023-06-04T06:31:37;2.03;;;0.80;;
19207;SDS011;9737;59.466;18.036;2023-06-04T06:34:05;1.38;;;0.85;;
19207;SDS011;9737;59.466;18.036;2023-06-04T06:36:34;0.82;;;0.80;;
19207;SDS011;9737;59.466;18.036;2023-06-04T06:39:02;1.65;;;0.98;;
19207;SDS011;9737;59.466;18.036;2023-06-04T06:41:30;1.30;;;0.80;;
19207;SDS011;9737;59.466;18.036;2023-06-04T06:43:58;1.13;;;0.90;;
19207;SDS011;9737;59.466;18.036;2023-06-04T06:46:26;0.75;;;0.75;;
19207;SDS011;9737;59.466;18.036;2023-06-04T06:48:54;0.80;;;0.80;;
19207;SDS011;9737;59.466;18.036;2023-06-04T06:51:22;0.88;;;0.80;;
19207;SDS011;9737;59.466;18.036;2023-06-04T06:53:51;1.05;;;0.80;;
19207;SDS011;9737;59.466;18.036;2023-06-04T06:56:19;1.08;;;0.80;;
19207;SDS011;9737;59.466;18.036;2023-06-04T06:58:47;1.08;;;0.88;;
19207;SDS011;9737;59.466;18.036;2023-06-04T07:01:15;2.05;;;0.80;;
19207;SDS011;9737;59.466;18.036;2023-06-04T07:03:43;0.93;;;0.80;;
19207;SDS011;9737;59.466;18.036;2023-06-04T07:06:11;0.70;;;0.70;;
19207;SDS011;9737;59.466;18.036;2023-06-04T07:08:39;8.23;;;1.00;;
19207;SDS011;9737;59.466;18.036;2023-06-04T07:11:10;0.95;;;0.70;;
19207;SDS011;9737;59.466;18.036;2023-06-04T07:13:38;0.68;;;0.68;;
19207;SDS011;9737;59.466;18.036;2023-06-04T07:16:06;0.65;;;0.65;;
19207;SDS011;9737;59.466;18.036;2023-06-04T07:18:34;0.60;;;0.60;;
19207;SDS011;9737;59.466;18.036;2023-06-04T07:21:02;1.65;;;0.60;;
19207;SDS011;9737;59.466;18.036;2023-06-04T07:23:30;0.60;;;0.60;;
19207;SDS011;9737;59.466;18.036;2023-06-04T07:25:58;0.70;;;0.70;;
19207;SDS011;9737;59.466;18.036;2023-06-04T07:28:27;0.60;;;0.60;;
19207;SDS011;9737;59.466;18.036;2023-06-04T07:30:55;1.02;;;0.70;;
19207;SDS011;9737;59.466;18.036;2023-06-04T07:33:24;4.30;;;0.80;;
19207;SDS011;9737;59.466;18.036;2023-06-04T07:35:54;0.70;;;0.70;;
19207;SDS011;9737;59.466;18.036;2023-06-04T07:38:22;0.75;;;0.75;;
19207;SDS011;9737;59.466;18.036;2023-06-04T07:40:50;0.73;;;0.70;;
19207;SDS011;9737;59.466;18.036;2023-06-04T07:43:18;0.93;;;0.80;;
19207;SDS011;9737;59.466;18.036;2023-06-04T07:45:47;2.33;;;0.80;;
19207;SDS011;9737;59.466;18.036;2023-06-04T07:48:15;1.27;;;0.80;;
19207;SDS011;9737;59.466;18.036;2023-06-04T07:50:43;0.80;;;0.70;;
19207;SDS011;9737;59.466;18.036;2023-06-04T07:53:11;0.80;;;0.80;;
19207;SDS011;9737;59.466;18.036;2023-06-04T07:55:39;2.35;;;0.80;;
19207;SDS011;9737;59.466;18.036;2023-06-04T07:58:07;0.88;;;0.88;;
19207;SDS011;9737;59.466;18.036;2023-06-04T08:00:34;4.13;;;0.80;;
19207;SDS011;9737;59.466;18.036;2023-06-04T08:03:04;1.30;;;0.85;;
19207;SDS011;9737;59.466;18.036;2023-06-04T08:05:32;6.00;;;0.90;;
19207;SDS011;9737;59.466;18.036;2023-06-04T08:08:00;2.60;;;0.75;;
19207;SDS011;9737;59.466;18.036;2023-06-04T08:10:28;1.00;;;0.90;;
19207;SDS011;9737;59.466;18.036;2023-06-04T08:12:56;2.47;;;1.00;;
19207;SDS011;9737;59.466;18.036;2023-06-04T08:15:24;0.70;;;0.70;;
19207;SDS011;9737;59.466;18.036;2023-06-04T08:17:51;2.97;;;1.00;;
19207;SDS011;9737;59.466;18.036;2023-06-04T08:20:21;6.85;;;1.00;;
19207;SDS011;9737;59.466;18.036;2023-06-04T08:22:52;1.42;;;0.82;;
19207;SDS011;9737;59.466;18.036;2023-06-04T08:25:20;1.00;;;0.98;;
19207;SDS011;9737;59.466;18.036;2023-06-04T08:27:48;0.90;;;0.85;;
19207;SDS011;9737;59.466;18.036;2023-06-04T08:30:16;1.95;;;0.80;;
19207;SDS011;9737;59.466;18.036;2023-06-04T08:32:44;2.78;;;0.80;;
19207;SDS011;9737;59.466;18.036;2023-06-04T08:35:12;8.27;;;0.90;;
19207;SDS011;9737;59.466;18.036;2023-06-04T08:37:41;2.63;;;0.80;;
19207;SDS011;9737;59.466;18.036;2023-06-04T08:40:09;2.05;;;0.75;;
19207;SDS011;9737;59.466;18.036;2023-06-04T08:42:38;0.70;;;0.70;;
19207;SDS011;9737;59.466;18.036;2023-06-04T08:45:09;1.98;;;0.75;;
19207;SDS011;9737;59.466;18.036;2023-06-04T08:47:39;0.85;;;0.80;;
19207;SDS011;9737;59.466;18.036;2023-06-04T08:50:12;0.95;;;0.70;;
19207;SDS011;9737;59.466;18.036;2023-06-04T08:52:41;0.65;;;0.65;;
19207;SDS011;9737;59.466;18.036;2023-06-04T08:55:10;0.85;;;0.70;;
19207;SDS011;9737;59.466;18.036;2023-06-04T08:57:40;3.28;;;0.75;;
19207;SDS011;9737;59.466;18.036;2023-06-04T09:00:08;0.60;;;0.60;;
19207;SDS011;9737;59.466;18.036;2023-06-04T09:02:38;2.55;;;0.70;;
19207;SDS011;9737;59.466;18.036;2023-06-04T09:05:07;0.70;;;0.70;;
19207;SDS011;9737;59.466;18.036;2023-06-04T09:07:37;5.90;;;0.90;;
19207;SDS011;9737;59.466;18.036;2023-06-04T09:10:08;1.08;;;0.80;;
19207;SDS011;9737;59.466;18.036;2023-06-04T09:12:40;2.95;;;0.80;;
19207;SDS011;9737;59.466;18.036;2023-06-04T09:15:10;2.88;;;0.80;;
19207;SDS011;9737;59.466;18.036;2023-06-04T09:17:38;3.42;;;0.80;;
19207;SDS011;9737;59.466;18.036;2023-06-04T09:20:07;1.85;;;0.70;;
19207;SDS011;9737;59.466;18.036;2023-06-04T09:22:36;0.77;;;0.60;;
19207;SDS011;9737;59.466;18.036;2023-06-04T09:25:05;1.25;;;0.73;;
19207;SDS011;9737;59.466;18.036;2023-06-04T09:27:46;1.73;;;0.68;;
19207;SDS011;9737;59.466;18.036;2023-06-04T09:30:14;1.45;;;0.70;;
19207;SDS011;9737;59.466;18.036;2023-06-04T09:32:42;4.47;;;0.77;;
19207;SDS011;9737;59.466;18.036;2023-06-04T09:35:11;1.55;;;0.73;;
19207;SDS011;9737;59.466;18.036;2023-06-04T09:37:41;4.43;;;1.00;;
19207;SDS011;9737;59.466;18.036;2023-06-04T09:40:11;1.50;;;0.70;;
19207;SDS011;9737;59.466;18.036;2023-06-04T09:42:42;0.80;;;0.80;;
19207;SDS011;9737;59.466;18.036;2023-06-04T09:45:11;1.13;;;0.80;;
19207;SDS011;9737;59.466;18.036;2023-06-04T09:47:40;0.73;;;0.70;;
19207;SDS011;9737;59.466;18.036;2023-06-04T09:50:09;1.40;;;0.80;;
19207;SDS011;9737;59.466;18.036;2023-06-04T09:52:38;4.28;;;0.75;;
19207;SDS011;9737;59.466;18.036;2023-06-04T09:55:18;4.65;;;0.80;;
19207;SDS011;9737;59.466;18.036;2023-06-04T09:57:49;3.67;;;0.90;;
19207;SDS011;9737;59.466;18.036;2023-06-04T10:00:18;1.38;;;0.80;;
19207;SDS011;9737;59.466;18.036;2023-06-04T10:02:47;2.65;;;0.80;;
19207;SDS011;9737;59.466;18.036;2023-06-04T10:05:16;0.70;;;0.68;;
19207;SDS011;9737;59.466;18.036;2023-06-04T10:07:48;1.52;;;0.70;;
19207;SDS011;9737;59.466;18.036;2023-06-04T10:10:26;1.92;;;0.90;;
19207;SDS011;9737;59.466;18.036;2023-06-04T10:12:56;2.95;;;0.70;;
19207;SDS011;9737;59.466;18.036;2023-06-04T10:15:29;1.45;;;0.73;;
19207;SDS011;9737;59.466;18.036;2023-06-04T10:18:01;0.60;;;0.60;;
19207;SDS011;9737;59.466;18.036;2023-06-04T10:20:30;0.50;;;0.50;;
19207;SDS011;9737;59.466;18.036;2023-06-04T10:22:58;2.83;;;0.60;;
19207;SDS011;9737;59.466;18.036;2023-06-04T10:25:29;0.82;;;0.82;;
19207;SDS011;9737;59.466;18.036;2023-06-04T10:27:58;1.10;;;0.80;;
19207;SDS011;9737;59.466;18.036;2023-06-04T10:30:29;0.85;;;0.85;;
19207;SDS011;9737;59.466;18.036;2023-06-04T10:32:57;0.98;;;0.70;;
19207;SDS011;9737;59.466;18.036;2023-06-04T10:35:29;1.10;;;0.82;;
19207;SDS011;9737;59.466;18.036;2023-06-04T10:38:06;0.70;;;0.70;;
19207;SDS011;9737;59.466;18.036;2023-06-04T10:40:36;3.28;;;0.60;;
19207;SDS011;9737;59.466;18.036;2023-06-04T10:43:05;1.52;;;1.00;;
19207;SDS011;9737;59.466;18.036;2023-06-04T10:45:33;2.30;;;1.42;;
19207;SDS011;9737;59.466;18.036;2023-06-04T10:48:01;1.70;;;0.98;;
19207;SDS011;9737;59.466;18.036;2023-06-04T10:50:30;0.73;;;0.70;;
19207;SDS011;9737;59.466;18.036;2023-06-04T10:52:58;2.33;;;1.05;;
19207;SDS011;9737;59.466;18.036;2023-06-04T10:55:29;2.00;;;1.05;;
19207;SDS011;9737;59.466;18.036;2023-06-04T10:58:00;4.20;;;1.05;;
19207;SDS011;9737;59.466;18.036;2023-06-04T11:00:35;5.85;;;1.30;;
19207;SDS011;9737;59.466;18.036;2023-06-04T11:03:04;0.60;;;0.60;;
19207;SDS011;9737;59.466;18.036;2023-06-04T11:05:35;2.25;;;0.88;;
19207;SDS011;9737;59.466;18.036;2023-06-04T11:08:03;1.02;;;0.93;;
19207;SDS011;9737;59.466;18.036;2023-06-04T11:10:32;1.17;;;1.08;;
19207;SDS011;9737;59.466;18.036;2023-06-04T11:13:03;1.10;;;0.98;;
19207;SDS011;9737;59.466;18.036;2023-06-04T11:15:38;1.10;;;0.82;;
19207;SDS011;9737;59.466;18.036;2023-06-04T11:18:08;0.80;;;0.77;;
19207;SDS011;9737;59.466;18.036;2023-06-04T11:20:41;1.10;;;1.00;;
19207;SDS011;9737;59.466;18.036;2023-06-04T11:23:11;2.72;;;0.88;;
19207;SDS011;9737;59.466;18.036;2023-06-04T11:25:40;0.90;;;0.80;;
19207;SDS011;9737;59.466;18.036;2023-06-04T11:28:15;2.15;;;0.75;;
19207;SDS011;9737;59.466;18.036;2023-06-04T11:30:43;1.02;;;0.80;;
19207;SDS011;9737;59.466;18.036;2023-06-04T11:33:11;0.70;;;0.70;;
19207;SDS011;9737;59.466;18.036;2023-06-04T11:35:39;0.80;;;0.80;;
19207;SDS011;9737;59.466;18.036;2023-06-04T11:38:09;0.63;;;0.63;;
19207;SDS011;9737;59.466;18.036;2023-06-04T11:40:37;1.13;;;0.88;;
19207;SDS011;9737;59.466;18.036;2023-06-04T11:43:05;0.60;;;0.60;;
19207;SDS011;9737;59.466;18.036;2023-06-04T11:45:37;2.15;;;0.77;;
19207;SDS011;9737;59.466;18.036;2023-06-04T11:48:05;0.73;;;0.73;;
19207;SDS011;9737;59.466;18.036;2023-06-04T11:50:33;1.55;;;0.70;;
19207;SDS011;9737;59.466;18.036;2023-06-04T11:53:02;1.05;;;0.75;;
19207;SDS011;9737;59.466;18.036;2023-06-04T11:55:31;0.90;;;0.70;;
19207;SDS011;9737;59.466;18.036;2023-06-04T11:57:59;3.28;;;0.80;;
19207;SDS011;9737;59.466;18.036;2023-06-04T12:00:27;0.65;;;0.65;;
19207;SDS011;9737;59.466;18.036;2023-06-04T12:02:57;1.00;;;0.70;;
19207;SDS011;9737;59.466;18.036;2023-06-04T12:05:28;0.60;;;0.60;;
19207;SDS011;9737;59.466;18.036;2023-06-04T12:08:04;6.28;;;1.00;;
19207;SDS011;9737;59.466;18.036;2023-06-04T12:10:36;0.85;;;0.70;;
19207;SDS011;9737;59.466;18.036;2023-06-04T12:13:05;3.42;;;0.80;;
19207;SDS011;9737;59.466;18.036;2023-06-04T12:15:33;0.68;;;0.60;;
19207;SDS011;9737;59.466;18.036;2023-06-04T12:18:03;1.02;;;0.73;;
19207;SDS011;9737;59.466;18.036;2023-06-04T12:20:32;1.10;;;0.68;;
19207;SDS011;9737;59.466;18.036;2023-06-04T12:23:02;3.15;;;0.68;;
19207;SDS011;9737;59.466;18.036;2023-06-04T12:25:31;7.55;;;1.00;;
19207;SDS011;9737;59.466;18.036;2023-06-04T12:28:00;3.08;;;0.70;;
19207;SDS011;9737;59.466;18.036;2023-06-04T12:30:37;0.60;;;0.60;;
19207;SDS011;9737;59.466;18.036;2023-06-04T12:33:07;4.50;;;0.77;;
19207;SDS011;9737;59.466;18.036;2023-06-04T12:35:35;2.72;;;0.70;;
19207;SDS011;9737;59.466;18.036;2023-06-04T12:38:03;1.65;;;0.68;;
19207;SDS011;9737;59.466;18.036;2023-06-04T12:40:32;2.80;;;0.52;;
19207;SDS011;9737;59.466;18.036;2023-06-04T12:43:00;0.43;;;0.43;;
19207;SDS011;9737;59.466;18.036;2023-06-04T12:45:28;1.17;;;0.50;;
19207;SDS011;9737;59.466;18.036;2023-06-04T12:47:56;1.98;;;0.50;;
19207;SDS011;9737;59.466;18.036;2023-06-04T12:50:25;0.55;;;0.43;;
19207;SDS011;9737;59.466;18.036;2023-06-04T12:52:53;0.95;;;0.57;;
19207;SDS011;9737;59.466;18.036;2023-06-04T12:55:21;1.65;;;0.50;;
19207;SDS011;9737;59.466;18.036;2023-06-04T12:57:53;0.95;;;0.60;;
19207;SDS011;9737;59.466;18.036;2023-06-04T13:00:21;0.50;;;0.50;;
19207;SDS011;9737;59.466;18.036;2023-06-04T13:02:49;0.50;;;0.50;;
19207;SDS011;9737;59.466;18.036;2023-06-04T13:05:17;0.63;;;0.40;;
19207;SDS011;9737;59.466;18.036;2023-06-04T13:07:46;0.40;;;0.40;;
19207;SDS011;9737;59.466;18.036;2023-06-04T13:10:14;0.50;;;0.43;;
19207;SDS011;9737;59.466;18.036;2023-06-04T13:12:42;3.92;;;0.50;;
19207;SDS011;9737;59.466;18.036;2023-06-04T13:15:10;1.60;;;0.45;;
19207;SDS011;9737;59.466;18.036;2023-06-04T13:17:38;0.50;;;0.40;;
19207;SDS011;9737;59.466;18.036;2023-06-04T13:20:06;1.30;;;0.50;;
19207;SDS011;9737;59.466;18.036;2023-06-04T13:22:35;0.60;;;0.43;;
19207;SDS011;9737;59.466;18.036;2023-06-04T13:25:05;1.55;;;0.52;;
19207;SDS011;9737;59.466;18.036;2023-06-04T13:27:33;0.60;;;0.45;;
19207;SDS011;9737;59.466;18.036;2023-06-04T13:30:01;0.47;;;0.47;;
19207;SDS011;9737;59.466;18.036;2023-06-04T13:32:29;0.63;;;0.60;;
19207;SDS011;9737;59.466;18.036;2023-06-04T13:34:57;5.20;;;0.50;;
19207;SDS011;9737;59.466;18.036;2023-06-04T13:37:25;0.80;;;0.43;;
19207;SDS011;9737;59.466;18.036;2023-06-04T13:39:53;0.60;;;0.45;;
19207;SDS011;9737;59.466;18.036;2023-06-04T13:42:23;0.57;;;0.50;;
19207;SDS011;9737;59.466;18.036;2023-06-04T13:44:50;1.27;;;0.60;;
19207;SDS011;9737;59.466;18.036;2023-06-04T13:47:18;1.55;;;0.63;;
19207;SDS011;9737;59.466;18.036;2023-06-04T13:49:48;0.80;;;0.80;;
19207;SDS011;9737;59.466;18.036;2023-06-04T13:52:15;3.13;;;0.68;;
19207;SDS011;9737;59.466;18.036;2023-06-04T13:54:43;1.20;;;0.65;;
19207;SDS011;9737;59.466;18.036;2023-06-04T13:57:11;0.70;;;0.70;;
19207;SDS011;9737;59.466;18.036;2023-06-04T13:59:41;1.15;;;0.82;;
19207;SDS011;9737;59.466;18.036;2023-06-04T14:02:08;3.60;;;0.63;;
19207;SDS011;9737;59.466;18.036;2023-06-04T14:04:36;1.90;;;0.70;;
19207;SDS011;9737;59.466;18.036;2023-06-04T14:07:04;0.63;;;0.63;;
19207;SDS011;9737;59.466;18.036;2023-06-04T14:09:33;0.98;;;0.57;;
19207;SDS011;9737;59.466;18.036;2023-06-04T14:12:02;2.88;;;0.63;;
19207;SDS011;9737;59.466;18.036;2023-06-04T14:14:31;0.50;;;0.50;;
19207;SDS011;9737;59.466;18.036;2023-06-04T14:17:04;0.60;;;0.47;;
19207;SDS011;9737;59.466;18.036;2023-06-04T14:19:32;1.83;;;0.70;;
19207;SDS011;9737;59.466;18.036;2023-06-04T14:22:00;0.50;;;0.50;;
19207;SDS011;9737;59.466;18.036;2023-06-04T14:24:28;2.75;;;0.45;;
19207;SDS011;9737;59.466;18.036;2023-06-04T14:26:56;0.98;;;0.75;;
19207;SDS011;9737;59.466;18.036;2023-06-04T14:29:24;1.88;;;0.50;;
19207;SDS011;9737;59.466;18.036;2023-06-04T14:31:52;0.70;;;0.60;;
19207;SDS011;9737;59.466;18.036;2023-06-04T14:34:22;0.70;;;0.68;;
19207;SDS011;9737;59.466;18.036;2023-06-04T14:36:49;1.00;;;0.60;;
19207;SDS011;9737;59.466;18.036;2023-06-04T14:39:17;2.50;;;0.63;;
19207;SDS011;9737;59.466;18.036;2023-06-04T14:41:48;1.35;;;0.60;;
19207;SDS011;9737;59.466;18.036;2023-06-04T14:44:17;0.70;;;0.50;;
19207;SDS011;9737;59.466;18.036;2023-06-04T14:46:45;0.68;;;0.68;;
19207;SDS011;9737;59.466;18.036;2023-06-04T14:49:13;0.77;;;0.52;;
19207;SDS011;9737;59.466;18.036;2023-06-04T14:51:42;0.60;;;0.60;;
19207;SDS011;9737;59.466;18.036;2023-06-04T14:54:10;0.90;;;0.68;;
19207;SDS011;9737;59.466;18.036;2023-06-04T14:56:38;1.55;;;0.60;;
19207;SDS011;9737;59.466;18.036;2023-06-04T14:59:05;0.85;;;0.60;;